Time;durP1;ratioP1;P1;durP2;ratioP2;P2;SDS_P1;SDS_P2;PMS_P1;PMS_P2;Temp;Humidity;BMP_temperature;BMP_pressure;BME280_temperature;BME280_humidity;BME280_pressure;Samples;Min_cycle;Max_cycle;Signal;HPM_P1;HPM_P2
2022/07/23 00:01:57;;;;;;;145.48;138.25;;;;;;;;;;5038478;28;20564;-71
2022/07/23 00:04:23;;;;;;;149.02;141.60;;;;;;;;;;5043286;28;20475;-70
2022/07/23 00:06:48;;;;;;;153.52;145.88;;;;;;;;;;5038884;28;20060;-70
2022/07/23 00:09:13;;;;;;;158.98;151.05;;;;;;;;;;5043619;28;20040;-70
2022/07/23 00:11:39;;;;;;;147.07;139.75;;;;;;;;;;5036834;28;20057;-70
2022/07/23 00:14:04;;;;;;;182.23;173.32;;;;;;;;;;5040627;28;20552;-70
2022/07/23 00:16:29;;;;;;;168.88;160.57;;;;;;;;;;5038268;28;20040;-71
2022/07/23 00:18:55;;;;;;;175.75;167.10;;;;;;;;;;5039045;28;20029;-71
2022/07/23 00:21:20;;;;;;;184.65;175.48;;;;;;;;;;5037387;28;20028;-71
2022/07/23 00:23:46;;;;;;;114.47;108.80;;;;;;;;;;5041103;28;20195;-71
2022/07/23 00:26:11;;;;;;;71.32;67.68;;;;;;;;;;5045498;28;20033;-70
2022/07/23 00:28:36;;;;;;;91.32;86.75;;;;;;;;;;5041804;28;20542;-71
2022/07/23 00:31:02;;;;;;;73.68;69.95;;;;;;;;;;5040596;28;20479;-70
2022/07/23 00:33:27;;;;;;;119.07;113.07;;;;;;;;;;5041946;28;20056;-71
2022/07/23 00:35:52;;;;;;;68.10;64.60;;;;;;;;;;5047414;28;20157;-73
2022/07/23 00:38:18;;;;;;;56.78;53.88;;;;;;;;;;5043815;28;20032;-72
2022/07/23 00:40:43;;;;;;;74.63;70.85;;;;;;;;;;5045098;28;20482;-73
2022/07/23 00:43:08;;;;;;;114.13;108.43;;;;;;;;;;5045760;28;20026;-73
2022/07/23 00:45:34;;;;;;;62.80;59.63;;;;;;;;;;5042523;28;20032;-73
2022/07/23 00:48:00;;;;;;;72.72;69.07;;;;;;;;;;5042530;28;20138;-72
2022/07/23 00:50:26;;;;;;;101.97;96.95;;;;;;;;;;5045514;28;20020;-72
2022/07/23 00:52:52;;;;;;;79.75;75.78;;;;;;;;;;5041763;28;20037;-72
2022/07/23 00:55:17;;;;;;;109.05;103.63;;;;;;;;;;5041412;28;20653;-71
2022/07/23 00:57:43;;;;;;;175.57;166.95;;;;;;;;;;5043362;28;20041;-71
2022/07/23 01:00:12;;;;;;;100.60;95.60;;;;;;;;;;5044494;28;20024;-71
2022/07/23 01:02:38;;;;;;;182.73;173.57;;;;;;;;;;5040437;28;20043;-71
2022/07/23 01:05:04;;;;;;;125.13;118.90;;;;;;;;;;5043320;28;20036;-71
2022/07/23 01:07:30;;;;;;;93.57;88.90;;;;;;;;;;5042693;28;20025;-72
2022/07/23 01:09:56;;;;;;;249.25;236.93;;;;;;;;;;5042343;28;20056;-72
2022/07/23 01:12:21;;;;;;;265.20;252.10;;;;;;;;;;5043462;28;20961;-72
2022/07/23 01:15:00;;;;;;;324.95;308.77;;;;;;;;;;5046576;28;20033;-72
2022/07/23 01:17:25;;;;;;;158.52;150.13;;;;;;;;;;5039521;28;20342;-72
2022/07/23 01:19:51;;;;;;;220.32;209.52;;;;;;;;;;5041266;28;20115;-72
2022/07/23 01:22:18;;;;;;;194.25;184.73;;;;;;;;;;5042677;28;20025;-72
2022/07/23 01:24:43;;;;;;;203.55;193.63;;;;;;;;;;5042868;28;20519;-72
2022/07/23 01:27:09;;;;;;;149.07;141.57;;;;;;;;;;5039461;28;20052;-71
2022/07/23 01:29:34;;;;;;;343.52;326.25;;;;;;;;;;5042845;28;20089;-69
2022/07/23 01:31:59;;;;;;;290.10;275.35;;;;;;;;;;5038962;28;20029;-69
2022/07/23 01:34:25;;;;;;;118.47;112.38;;;;;;;;;;5041005;28;20113;-68
2022/07/23 01:36:50;;;;;;;176.82;167.75;;;;;;;;;;5043642;28;20474;-67
2022/07/23 01:39:15;;;;;;;180.55;171.23;;;;;;;;;;5039889;28;20039;-64
2022/07/23 01:41:41;;;;;;;303.38;287.75;;;;;;;;;;5043182;28;20075;-64
2022/07/23 01:44:06;;;;;;;352.42;334.25;;;;;;;;;;5047486;28;20045;-64
2022/07/23 01:46:32;;;;;;;346.30;329.02;;;;;;;;;;5046437;28;20079;-65
2022/07/23 01:48:57;;;;;;;336.17;319.15;;;;;;;;;;5044315;28;20109;-65
2022/07/23 01:51:22;;;;;;;272.08;258.50;;;;;;;;;;5044393;28;20047;-65
2022/07/23 01:53:48;;;;;;;332.40;315.77;;;;;;;;;;5045483;28;20033;-65
2022/07/23 01:56:14;;;;;;;213.85;202.95;;;;;;;;;;5046010;28;20033;-65
2022/07/23 01:58:40;;;;;;;140.40;133.38;;;;;;;;;;5042028;28;20121;-66
2022/07/23 02:01:05;;;;;;;137.85;130.98;;;;;;;;;;5044015;28;20111;-66
2022/07/23 02:03:31;;;;;;;273.88;260.23;;;;;;;;;;5043092;28;20044;-66
2022/07/23 02:05:56;;;;;;;291.10;276.65;;;;;;;;;;5042121;28;20038;-66
2022/07/23 02:08:21;;;;;;;294.88;280.00;;;;;;;;;;5044620;28;20037;-66
2022/07/23 02:10:48;;;;;;;283.23;269.00;;;;;;;;;;5045005;28;20064;-66
2022/07/23 02:13:13;;;;;;;172.40;163.68;;;;;;;;;;5043654;28;20218;-66
2022/07/23 02:15:39;;;;;;;93.20;88.50;;;;;;;;;;5040076;28;20049;-67
2022/07/23 02:18:04;;;;;;;119.32;113.22;;;;;;;;;;5039147;28;20056;-67
2022/07/23 02:20:29;;;;;;;123.00;116.80;;;;;;;;;;5044426;28;20422;-67
2022/07/23 02:22:55;;;;;;;136.25;129.43;;;;;;;;;;5041066;28;20025;-67
2022/07/23 02:25:20;;;;;;;119.15;113.18;;;;;;;;;;5042706;28;20040;-68
2022/07/23 02:27:45;;;;;;;96.53;91.75;;;;;;;;;;5038831;28;20044;-67
2022/07/23 02:30:11;;;;;;;57.75;54.75;;;;;;;;;;5036727;28;20820;-67
2022/07/23 02:32:36;;;;;;;51.28;48.65;;;;;;;;;;5042099;28;20144;-67
2022/07/23 02:35:03;;;;;;;52.75;50.08;;;;;;;;;;5041244;28;20523;-67
2022/07/23 02:37:28;;;;;;;53.90;51.20;;;;;;;;;;5043017;28;20029;-67
2022/07/23 02:39:54;;;;;;;55.92;53.08;;;;;;;;;;5040118;28;20085;-67
2022/07/23 02:42:19;;;;;;;55.72;52.90;;;;;;;;;;5043428;28;20021;-68
2022/07/23 02:44:45;;;;;;;57.83;54.92;;;;;;;;;;5046104;28;20105;-67
2022/07/23 02:47:10;;;;;;;56.17;53.28;;;;;;;;;;5045775;28;20035;-68
2022/07/23 02:49:35;;;;;;;51.97;49.28;;;;;;;;;;5043406;28;20096;-68
2022/07/23 02:52:02;;;;;;;49.55;46.95;;;;;;;;;;5044170;28;20057;-68
2022/07/23 02:54:27;;;;;;;49.20;46.65;;;;;;;;;;5043485;28;20040;-68
2022/07/23 02:56:53;;;;;;;58.95;55.95;;;;;;;;;;5042303;28;20029;-68
2022/07/23 02:59:18;;;;;;;48.58;46.05;;;;;;;;;;5044567;28;20087;-68
2022/07/23 03:01:44;;;;;;;49.22;46.72;;;;;;;;;;5042155;28;20043;-66
2022/07/23 03:04:10;;;;;;;42.67;40.47;;;;;;;;;;5042231;28;20067;-66
2022/07/23 03:06:35;;;;;;;47.45;45.00;;;;;;;;;;5039742;28;20029;-66
2022/07/23 03:09:01;;;;;;;48.20;45.47;;;;;;;;;;5039675;28;20469;-66
2022/07/23 03:11:27;;;;;;;47.38;44.92;;;;;;;;;;5040533;28;20232;-66
2022/07/23 03:13:52;;;;;;;47.70;45.28;;;;;;;;;;5039613;28;20033;-66
2022/07/23 03:16:17;;;;;;;47.53;45.05;;;;;;;;;;5040867;28;20458;-66
2022/07/23 03:18:43;;;;;;;43.00;40.78;;;;;;;;;;5038826;28;20025;-67
2022/07/23 03:21:08;;;;;;;38.90;36.88;;;;;;;;;;5040106;28;20033;-67
2022/07/23 03:23:33;;;;;;;35.30;33.38;;;;;;;;;;5043015;28;20087;-66
2022/07/23 03:25:59;;;;;;;37.28;35.33;;;;;;;;;;5044908;28;20082;-67
2022/07/23 03:28:24;;;;;;;45.72;43.33;;;;;;;;;;5039636;28;20025;-68
2022/07/23 03:30:50;;;;;;;42.22;40.03;;;;;;;;;;5040526;28;20017;-69
2022/07/23 03:33:16;;;;;;;45.97;43.60;;;;;;;;;;5042205;28;20021;-67
2022/07/23 03:35:43;;;;;;;50.38;47.80;;;;;;;;;;5040412;28;20050;-67
2022/07/23 03:38:08;;;;;;;52.22;49.40;;;;;;;;;;5040148;28;20037;-68
2022/07/23 03:40:34;;;;;;;55.38;52.55;;;;;;;;;;5039608;28;20044;-67
2022/07/23 03:42:59;;;;;;;52.13;49.45;;;;;;;;;;5041503;28;20022;-65
2022/07/23 03:45:25;;;;;;;46.17;43.67;;;;;;;;;;5039487;28;20033;-65
2022/07/23 03:47:50;;;;;;;52.78;49.97;;;;;;;;;;5039953;28;20056;-65
2022/07/23 03:50:15;;;;;;;60.33;57.22;;;;;;;;;;5038441;28;20041;-67
2022/07/23 03:52:41;;;;;;;46.03;43.60;;;;;;;;;;5042528;28;20091;-66
2022/07/23 03:55:07;;;;;;;49.22;46.58;;;;;;;;;;5043748;28;20040;-66
2022/07/23 03:57:32;;;;;;;40.47;38.30;;;;;;;;;;5036893;28;20528;-65
2022/07/23 03:59:57;;;;;;;50.72;48.15;;;;;;;;;;5044127;28;20036;-66
2022/07/23 04:02:23;;;;;;;46.72;44.30;;;;;;;;;;5043935;28;20021;-66
2022/07/23 04:04:48;;;;;;;47.17;44.78;;;;;;;;;;5039433;28;20048;-67
2022/07/23 04:07:14;;;;;;;51.17;48.53;;;;;;;;;;5040395;28;20021;-67
2022/07/23 04:09:40;;;;;;;51.97;49.33;;;;;;;;;;5044128;28;20056;-67
2022/07/23 04:12:06;;;;;;;48.92;46.40;;;;;;;;;;5040441;28;20029;-67
2022/07/23 04:14:32;;;;;;;49.53;46.88;;;;;;;;;;5036918;28;20526;-67
2022/07/23 04:16:57;;;;;;;60.17;57.05;;;;;;;;;;5043309;28;20072;-67
2022/07/23 04:19:22;;;;;;;64.50;61.13;;;;;;;;;;5042864;28;20030;-66
2022/07/23 04:21:48;;;;;;;59.10;56.05;;;;;;;;;;5043617;28;20032;-65
2022/07/23 04:24:13;;;;;;;53.58;50.88;;;;;;;;;;5043367;28;20028;-66
2022/07/23 04:26:38;;;;;;;52.10;49.40;;;;;;;;;;5041230;28;20041;-66
2022/07/23 04:29:04;;;;;;;53.25;50.55;;;;;;;;;;5039509;28;20041;-65
2022/07/23 04:31:29;;;;;;;73.43;69.72;;;;;;;;;;5042316;28;20037;-65
2022/07/23 04:33:54;;;;;;;48.88;46.25;;;;;;;;;;5045167;28;20465;-65
2022/07/23 04:36:20;;;;;;;49.20;46.70;;;;;;;;;;5042001;28;20526;-64
2022/07/23 04:38:45;;;;;;;59.38;56.35;;;;;;;;;;5038430;28;20037;-64
2022/07/23 04:41:10;;;;;;;58.67;55.72;;;;;;;;;;5044242;28;20044;-64
2022/07/23 04:43:36;;;;;;;69.18;65.68;;;;;;;;;;5041751;28;20040;-64
2022/07/23 04:46:01;;;;;;;38.28;36.25;;;;;;;;;;5043091;28;20037;-64
2022/07/23 04:48:26;;;;;;;45.22;42.88;;;;;;;;;;5036420;28;20048;-64
2022/07/23 04:50:52;;;;;;;37.90;35.95;;;;;;;;;;5045718;28;20044;-64
2022/07/23 04:53:18;;;;;;;42.25;40.05;;;;;;;;;;5043407;28;20036;-64
2022/07/23 04:55:43;;;;;;;43.28;41.05;;;;;;;;;;5044197;28;20553;-65
2022/07/23 04:58:09;;;;;;;41.90;39.75;;;;;;;;;;5038970;28;20036;-64
2022/07/23 05:00:34;;;;;;;43.05;40.65;;;;;;;;;;5044477;28;20112;-66
2022/07/23 05:02:59;;;;;;;50.78;48.20;;;;;;;;;;5040951;28;20090;-66
2022/07/23 05:05:25;;;;;;;49.47;46.97;;;;;;;;;;5045089;28;20029;-66
2022/07/23 05:07:50;;;;;;;47.75;45.33;;;;;;;;;;5040185;28;20033;-66
2022/07/23 05:10:16;;;;;;;38.35;36.33;;;;;;;;;;5044174;28;20035;-66
2022/07/23 05:12:41;;;;;;;44.22;41.92;;;;;;;;;;5038333;28;20773;-66
2022/07/23 05:15:07;;;;;;;60.78;57.70;;;;;;;;;;5041859;28;20037;-66
2022/07/23 05:17:32;;;;;;;57.65;54.72;;;;;;;;;;5036946;28;20032;-67
2022/07/23 05:19:57;;;;;;;118.97;113.03;;;;;;;;;;5036491;28;20040;-66
2022/07/23 05:22:23;;;;;;;67.68;64.25;;;;;;;;;;5039463;28;20028;-66
2022/07/23 05:24:48;;;;;;;51.80;49.20;;;;;;;;;;5042191;28;20037;-66
2022/07/23 05:27:13;;;;;;;49.13;46.60;;;;;;;;;;5044751;28;20109;-67
2022/07/23 05:29:39;;;;;;;56.72;53.80;;;;;;;;;;5044136;28;20037;-66
2022/07/23 05:32:04;;;;;;;54.80;51.47;;;;;;;;;;5041431;28;20024;-66
2022/07/23 05:34:30;;;;;;;47.72;45.30;;;;;;;;;;5042533;28;20033;-66
2022/07/23 05:36:55;;;;;;;55.15;52.25;;;;;;;;;;5038787;28;20040;-65
2022/07/23 05:39:21;;;;;;;55.53;52.60;;;;;;;;;;5043203;28;20036;-66
2022/07/23 05:41:46;;;;;;;55.15;52.35;;;;;;;;;;5043466;28;20037;-65
2022/07/23 05:44:11;;;;;;;47.25;44.75;;;;;;;;;;5043870;28;20064;-65
2022/07/23 05:46:37;;;;;;;101.60;96.55;;;;;;;;;;5040989;28;20881;-65
2022/07/23 05:49:02;;;;;;;50.72;48.13;;;;;;;;;;5042458;28;20442;-65
2022/07/23 05:51:27;;;;;;;52.88;50.17;;;;;;;;;;5038530;28;20040;-65
2022/07/23 05:53:53;;;;;;;45.20;42.58;;;;;;;;;;5040420;28;20021;-65
2022/07/23 05:56:19;;;;;;;69.75;66.25;;;;;;;;;;5038822;28;20029;-65
2022/07/23 05:58:44;;;;;;;61.70;58.55;;;;;;;;;;5043503;28;20026;-65
2022/07/23 06:01:11;;;;;;;124.85;118.63;;;;;;;;;;5039512;28;20036;-65
2022/07/23 06:03:37;;;;;;;85.70;81.45;;;;;;;;;;5043904;28;20064;-65
2022/07/23 06:06:03;;;;;;;146.40;139.07;;;;;;;;;;5042909;28;20108;-65
2022/07/23 06:08:28;;;;;;;94.47;89.78;;;;;;;;;;5038846;28;20701;-65
2022/07/23 06:10:53;;;;;;;159.07;151.27;;;;;;;;;;5043832;28;20029;-66
2022/07/23 06:13:19;;;;;;;190.75;181.20;;;;;;;;;;5035652;28;20080;-65
2022/07/23 06:15:44;;;;;;;73.93;70.05;;;;;;;;;;5037999;28;20045;-66
2022/07/23 06:18:09;;;;;;;105.78;100.25;;;;;;;;;;5043127;28;20035;-66
2022/07/23 06:20:35;;;;;;;204.80;194.65;;;;;;;;;;5036281;28;20040;-65
2022/07/23 06:23:00;;;;;;;55.47;52.45;;;;;;;;;;5036267;28;20029;-65
2022/07/23 06:25:26;;;;;;;148.98;141.45;;;;;;;;;;5039359;28;20044;-66
2022/07/23 06:27:51;;;;;;;97.53;92.50;;;;;;;;;;5040517;28;20025;-66
2022/07/23 06:30:18;;;;;;;173.07;164.40;;;;;;;;;;5040764;28;20043;-66
2022/07/23 06:32:44;;;;;;;111.28;105.65;;;;;;;;;;5042617;28;20077;-66
2022/07/23 06:35:09;;;;;;;194.23;184.65;;;;;;;;;;5040650;28;20084;-65
2022/07/23 06:37:35;;;;;;;202.95;192.93;;;;;;;;;;5038505;28;20061;-66
2022/07/23 06:40:00;;;;;;;164.70;156.43;;;;;;;;;;5038499;28;20037;-66
2022/07/23 06:42:26;;;;;;;265.80;252.82;;;;;;;;;;5040467;28;20097;-66
2022/07/23 06:44:51;;;;;;;236.75;225.05;;;;;;;;;;5042495;28;20036;-66
2022/07/23 06:47:16;;;;;;;248.52;236.18;;;;;;;;;;5040918;28;20036;-66
2022/07/23 06:49:42;;;;;;;250.15;237.90;;;;;;;;;;5040639;28;20043;-66
2022/07/23 06:52:08;;;;;;;77.57;73.47;;;;;;;;;;5038227;28;20499;-65
2022/07/23 06:54:33;;;;;;;165.40;157.18;;;;;;;;;;5037438;28;20493;-66
2022/07/23 06:56:59;;;;;;;192.05;182.68;;;;;;;;;;5038706;28;20128;-66
2022/07/23 06:59:24;;;;;;;51.70;48.97;;;;;;;;;;5037107;28;20564;-65
2022/07/23 07:01:49;;;;;;;68.80;65.30;;;;;;;;;;5042898;28;20164;-65
2022/07/23 07:04:15;;;;;;;257.65;244.98;;;;;;;;;;5040867;28;20022;-66
2022/07/23 07:06:40;;;;;;;263.10;250.25;;;;;;;;;;5042910;28;20033;-65
2022/07/23 07:09:06;;;;;;;146.07;138.82;;;;;;;;;;5040589;28;20162;-67
2022/07/23 07:11:31;;;;;;;363.05;344.25;;;;;;;;;;5040579;28;20028;-66
2022/07/23 07:13:56;;;;;;;299.02;283.90;;;;;;;;;;5037091;28;20104;-67
2022/07/23 07:16:22;;;;;;;98.28;93.32;;;;;;;;;;5038116;28;20083;-66
2022/07/23 07:18:47;;;;;;;211.23;200.65;;;;;;;;;;5041182;28;20040;-67
2022/07/23 07:21:12;;;;;;;234.45;222.52;;;;;;;;;;5040130;28;20033;-67
2022/07/23 07:23:38;;;;;;;355.00;336.85;;;;;;;;;;5036849;28;20041;-67
2022/07/23 07:26:03;;;;;;;152.73;145.18;;;;;;;;;;5040933;28;20013;-67
2022/07/23 07:28:28;;;;;;;368.05;349.08;;;;;;;;;;5034833;28;20463;-67
2022/07/23 07:30:54;;;;;;;208.95;198.18;;;;;;;;;;5038850;28;20026;-67
2022/07/23 07:33:20;;;;;;;410.27;389.05;;;;;;;;;;5038616;28;20641;-67
2022/07/23 07:35:46;;;;;;;295.00;280.25;;;;;;;;;;5037439;28;20029;-67
2022/07/23 07:38:11;;;;;;;437.00;414.30;;;;;;;;;;5040590;28;20544;-66
2022/07/23 07:40:36;;;;;;;425.58;403.30;;;;;;;;;;5036489;28;20056;-67
2022/07/23 07:43:03;;;;;;;135.25;128.20;;;;;;;;;;5038829;28;20035;-65
2022/07/23 07:45:29;;;;;;;145.05;137.45;;;;;;;;;;5040516;28;20036;-67
2022/07/23 07:47:54;;;;;;;129.00;122.22;;;;;;;;;;5038459;28;20037;-66
2022/07/23 07:50:21;;;;;;;162.75;154.40;;;;;;;;;;5037719;28;20489;-67
2022/07/23 07:52:46;;;;;;;275.77;261.95;;;;;;;;;;5038647;28;20090;-66
2022/07/23 07:55:12;;;;;;;235.18;223.57;;;;;;;;;;5035436;28;20036;-67
2022/07/23 07:57:38;;;;;;;287.80;273.25;;;;;;;;;;5038086;28;20120;-67
2022/07/23 08:00:06;;;;;;;335.40;318.77;;;;;;;;;;5036940;28;20025;-67
2022/07/23 08:02:50;;;;;;;343.67;326.35;;;;;;;;;;5042658;28;20110;-66
2022/07/23 08:05:25;;;;;;;206.52;196.30;;;;;;;;;;5039584;28;20025;-67
2022/07/23 08:07:50;;;;;;;240.90;229.07;;;;;;;;;;5038347;28;20033;-67
2022/07/23 08:10:17;;;;;;;127.95;121.50;;;;;;;;;;5038125;28;20040;-67
2022/07/23 08:12:46;;;;;;;132.82;126.15;;;;;;;;;;5043350;28;20094;-66
2022/07/23 08:15:17;;;;;;;297.98;283.30;;;;;;;;;;5038816;28;20110;-67
2022/07/23 08:17:43;;;;;;;105.32;100.03;;;;;;;;;;5039861;28;20037;-66
2022/07/23 08:20:11;;;;;;;105.53;100.28;;;;;;;;;;5039540;28;20500;-66
2022/07/23 08:22:56;;;;;;;149.27;141.90;;;;;;;;;;5039302;28;20029;-66
2022/07/23 08:25:24;;;;;;;173.65;165.13;;;;;;;;;;5036168;28;20037;-66
2022/07/23 08:27:50;;;;;;;177.80;168.95;;;;;;;;;;5041241;28;20037;-66
2022/07/23 08:30:16;;;;;;;87.53;83.10;;;;;;;;;;5038659;28;20057;-66
2022/07/23 08:32:57;;;;;;;175.98;167.25;;;;;;;;;;5035734;28;20041;-65
2022/07/23 08:35:24;;;;;;;;;;;;;;;;;;5035840;28;20033;-65
2022/07/23 08:37:49;;;;;;;150.10;142.38;;;;;;;;;;5037964;28;19987;-65
2022/07/23 08:40:14;;;;;;;188.30;179.07;;;;;;;;;;5039770;28;20467;-65
2022/07/23 08:42:40;;;;;;;214.02;203.43;;;;;;;;;;5038268;28;20083;-65
2022/07/23 08:45:07;;;;;;;219.98;209.13;;;;;;;;;;5042742;28;20044;-65
2022/07/23 08:47:33;;;;;;;238.85;227.05;;;;;;;;;;5043329;28;20025;-65
2022/07/23 08:49:59;;;;;;;230.25;218.85;;;;;;;;;;5042250;28;20112;-65
2022/07/23 08:52:25;;;;;;;160.05;152.13;;;;;;;;;;5043915;28;20535;-65
2022/07/23 08:54:52;;;;;;;150.73;143.18;;;;;;;;;;5047547;28;20025;-65
2022/07/23 08:57:18;;;;;;;151.23;143.60;;;;;;;;;;5042470;28;20041;-65
2022/07/23 08:59:43;;;;;;;126.03;119.68;;;;;;;;;;5041258;28;20037;-65
2022/07/23 09:02:08;;;;;;;180.30;171.20;;;;;;;;;;5039226;28;20569;-66
2022/07/23 09:04:34;;;;;;;170.10;161.63;;;;;;;;;;5040430;28;20026;-65
2022/07/23 09:07:01;;;;;;;153.13;145.48;;;;;;;;;;5042147;28;20028;-66
2022/07/23 09:09:29;;;;;;;162.30;154.20;;;;;;;;;;5041303;28;20040;-66
2022/07/23 09:12:09;;;;;;;86.45;82.05;;;;;;;;;;5040763;28;20026;-66
2022/07/23 09:14:42;;;;;;;88.17;83.77;;;;;;;;;;5042579;28;20064;-65
2022/07/23 09:17:12;;;;;;;142.63;135.45;;;;;;;;;;5041343;28;20271;-65
2022/07/23 09:19:38;;;;;;;173.50;164.90;;;;;;;;;;5044408;28;20588;-65
2022/07/23 09:22:24;;;;;;;266.63;253.40;;;;;;;;;;5039052;28;20590;-66
2022/07/23 09:25:05;;;;;;;309.40;293.98;;;;;;;;;;5044524;28;20556;-66
2022/07/23 09:27:46;;;;;;;236.55;224.88;;;;;;;;;;5037660;28;20049;-66
2022/07/23 09:30:11;;;;;;;190.15;180.65;;;;;;;;;;5042542;28;20140;-66
2022/07/23 09:32:38;;;;;;;274.50;260.90;;;;;;;;;;5042038;28;20644;-67
2022/07/23 09:35:04;;;;;;;236.43;224.77;;;;;;;;;;5042017;28;20032;-66
2022/07/23 09:37:29;;;;;;;325.02;308.75;;;;;;;;;;5039478;28;20396;-66
2022/07/23 09:40:07;;;;;;;243.55;231.27;;;;;;;;;;5038016;28;20051;-66
2022/07/23 09:42:33;;;;;;;248.98;236.52;;;;;;;;;;5041211;28;20600;-67
2022/07/23 09:44:59;;;;;;;186.35;177.10;;;;;;;;;;5039848;28;20021;-66
2022/07/23 09:47:28;;;;;;;329.63;313.08;;;;;;;;;;5035219;28;20033;-66
2022/07/23 09:50:13;;;;;;;210.18;199.75;;;;;;;;;;5032530;28;20025;-65
2022/07/23 09:52:48;;;;;;;132.65;126.00;;;;;;;;;;5035729;28;20110;-66
2022/07/23 09:55:15;;;;;;;132.80;126.13;;;;;;;;;;5040606;28;20036;-66
2022/07/23 09:57:42;;;;;;;327.45;310.73;;;;;;;;;;5037685;28;20045;-66
2022/07/23 10:00:10;;;;;;;153.10;145.57;;;;;;;;;;5036061;28;20029;-66
2022/07/23 10:02:36;;;;;;;189.15;179.77;;;;;;;;;;5038680;28;20025;-67
2022/07/23 10:05:04;;;;;;;115.90;110.05;;;;;;;;;;5037468;28;20033;-67
2022/07/23 10:07:33;;;;;;;112.05;106.45;;;;;;;;;;5039017;28;20462;-66
2022/07/23 10:09:59;;;;;;;347.70;329.70;;;;;;;;;;5038521;28;20068;-67
2022/07/23 10:14:57;;;;;;;224.95;213.73;;;;;;;;;;5036905;28;20423;-67
2022/07/23 10:17:23;;;;;;;134.10;127.43;;;;;;;;;;5036734;28;20375;-67
2022/07/23 10:19:49;;;;;;;139.95;133.02;;;;;;;;;;5036266;28;20033;-66
2022/07/23 10:22:20;;;;;;;168.15;159.82;;;;;;;;;;5034669;28;20566;-66
2022/07/23 10:25:10;;;;;;;122.68;116.50;;;;;;;;;;5040095;28;20032;-66
2022/07/23 10:27:54;;;;;;;;;;;;;;;;;;5033836;28;20114;-66
2022/07/23 10:30:33;;;;;;;265.02;251.68;;;;;;;;;;5036380;28;19917;-67
2022/07/23 10:33:10;;;;;;;311.23;295.67;;;;;;;;;;5038608;28;20067;-67
2022/07/23 10:36:31;;;;;;;231.88;220.18;;;;;;;;;;5034440;28;20044;-66
2022/07/23 10:39:14;;;;;;;470.85;445.10;;;;;;;;;;5002258;28;20045;-66
2022/07/23 10:41:41;;;;;;;303.05;287.67;;;;;;;;;;5037184;28;20126;-65
2022/07/23 10:44:13;;;;;;;414.83;392.50;;;;;;;;;;5034192;28;20025;-65
2022/07/23 10:49:48;;;;;;;337.88;320.40;;;;;;;;;;5041649;28;20111;-67
2022/07/23 10:52:13;;;;;;;431.77;408.42;;;;;;;;;;5039101;28;20510;-66
2022/07/23 10:54:45;;;;;;;288.45;273.90;;;;;;;;;;5036753;28;20063;-64
2022/07/23 10:57:12;;;;;;;463.48;438.38;;;;;;;;;;5036692;28;20122;-64
2022/07/23 11:00:06;;;;;;;408.50;386.67;;;;;;;;;;5037048;28;20033;-64
2022/07/23 11:02:32;;;;;;;202.55;192.35;;;;;;;;;;5038214;28;20021;-65
2022/07/23 11:05:04;;;;;;;242.35;230.23;;;;;;;;;;5037647;28;20465;-64
2022/07/23 11:07:29;;;;;;;434.58;411.17;;;;;;;;;;5034578;28;20102;-64
2022/07/23 11:09:55;;;;;;;436.48;413.02;;;;;;;;;;5037738;28;20025;-65
2022/07/23 11:12:20;;;;;;;464.75;439.58;;;;;;;;;;5033024;28;20107;-65
2022/07/23 11:15:12;;;;;;;458.60;433.83;;;;;;;;;;5035800;28;20568;-66
2022/07/23 11:17:42;;;;;;;264.95;251.57;;;;;;;;;;5037072;28;20413;-65
2022/07/23 11:20:07;;;;;;;;;;;;;;;;;;5039215;28;20071;-66
2022/07/23 11:22:42;;;;;;;319.60;302.93;;;;;;;;;;5035676;28;19916;-67
2022/07/23 11:25:07;;;;;;;424.65;402.48;;;;;;;;;;5041289;28;20267;-66
2022/07/23 11:27:49;;;;;;;372.52;353.17;;;;;;;;;;5036637;28;20106;-66
2022/07/23 11:30:45;;;;;;;403.33;382.38;;;;;;;;;;5037634;28;20037;-67
2022/07/23 11:33:11;;;;;;;423.52;401.38;;;;;;;;;;5038384;28;20048;-66
2022/07/23 11:35:38;;;;;;;404.67;383.70;;;;;;;;;;5039074;28;20041;-64
2022/07/23 11:38:06;;;;;;;381.17;361.77;;;;;;;;;;5034556;28;20383;-65
2022/07/23 11:40:32;;;;;;;376.77;357.52;;;;;;;;;;5037425;28;20390;-65
2022/07/23 11:43:00;;;;;;;412.08;390.95;;;;;;;;;;5032597;28;20044;-65
2022/07/23 11:45:38;;;;;;;409.92;388.88;;;;;;;;;;5034235;28;20040;-66
2022/07/23 11:48:06;;;;;;;377.83;358.65;;;;;;;;;;5036867;28;20378;-66
2022/07/23 11:50:32;;;;;;;369.88;351.08;;;;;;;;;;5036821;28;20033;-66
2022/07/23 11:52:57;;;;;;;499.55;471.80;;;;;;;;;;5032449;28;20040;-66
2022/07/23 11:55:23;;;;;;;462.05;437.23;;;;;;;;;;5035356;28;20037;-66
2022/07/23 11:57:51;;;;;;;404.77;383.58;;;;;;;;;;5034406;28;20071;-66
2022/07/23 12:00:22;;;;;;;604.70;567.42;;;;;;;;;;5030980;28;20597;-66
2022/07/23 12:02:58;;;;;;;478.70;452.58;;;;;;;;;;5035835;28;20137;-65
2022/07/23 12:05:35;;;;;;;612.75;575.08;;;;;;;;;;5035910;28;20401;-64
2022/07/23 12:08:01;;;;;;;518.65;489.38;;;;;;;;;;5033727;28;20441;-65
2022/07/23 12:10:38;;;;;;;539.38;508.45;;;;;;;;;;5038092;28;20526;-66
2022/07/23 12:13:12;;;;;;;595.97;559.95;;;;;;;;;;5034482;28;20040;-66
2022/07/23 12:15:47;;;;;;;498.08;469.67;;;;;;;;;;5031620;28;20080;-65
2022/07/23 12:18:15;;;;;;;561.60;528.15;;;;;;;;;;5035324;28;20033;-64
2022/07/23 12:20:44;;;;;;;248.88;236.02;;;;;;;;;;5037874;28;20615;-64
2022/07/23 12:23:12;;;;;;;202.13;191.88;;;;;;;;;;5038721;28;20118;-65
2022/07/23 12:25:41;;;;;;;155.27;147.50;;;;;;;;;;5042861;28;20853;-65
2022/07/23 12:28:17;;;;;;;125.30;119.05;;;;;;;;;;5038740;28;20483;-66
2022/07/23 12:30:52;;;;;;;164.07;155.88;;;;;;;;;;5040601;28;20041;-65
2022/07/23 12:33:30;;;;;;;129.43;122.95;;;;;;;;;;5037113;28;20038;-66
2022/07/23 12:36:04;;;;;;;117.30;111.40;;;;;;;;;;5038253;28;20040;-65
2022/07/23 12:38:38;;;;;;;105.28;100.00;;;;;;;;;;5033718;28;20033;-66
2022/07/23 12:41:04;;;;;;;116.95;111.10;;;;;;;;;;5045303;28;20513;-65
2022/07/23 12:43:36;;;;;;;163.80;155.50;;;;;;;;;;5035840;28;20029;-64
2022/07/23 12:46:07;;;;;;;193.43;183.73;;;;;;;;;;5039100;28;20033;-66
2022/07/23 12:48:49;;;;;;;190.43;180.85;;;;;;;;;;5037051;28;20052;-66
2022/07/23 12:51:32;;;;;;;238.95;226.98;;;;;;;;;;5037496;28;20025;-65
2022/07/23 12:54:04;;;;;;;221.95;210.95;;;;;;;;;;5039055;28;20041;-66
2022/07/23 12:56:32;;;;;;;199.25;189.20;;;;;;;;;;5040207;28;20020;-69
2022/07/23 12:59:09;;;;;;;174.68;165.88;;;;;;;;;;5042291;28;20667;-66
2022/07/23 13:01:37;;;;;;;152.88;145.15;;;;;;;;;;5041031;28;20683;-66
2022/07/23 13:04:09;;;;;;;204.18;193.95;;;;;;;;;;5042603;28;20104;-67
2022/07/23 13:06:43;;;;;;;224.70;212.88;;;;;;;;;;5045521;28;20026;-68
2022/07/23 13:09:18;;;;;;;178.30;169.32;;;;;;;;;;5045166;28;20029;-66
2022/07/23 13:11:46;;;;;;;179.80;170.73;;;;;;;;;;5039317;28;20037;-66
2022/07/23 13:14:12;;;;;;;186.82;177.30;;;;;;;;;;5042932;28;20041;-66
2022/07/23 13:16:38;;;;;;;178.13;169.00;;;;;;;;;;5040529;28;20561;-66
2022/07/23 13:19:04;;;;;;;218.38;207.18;;;;;;;;;;5039983;28;20486;-66
2022/07/23 13:21:29;;;;;;;185.60;176.27;;;;;;;;;;5038621;28;20036;-67
2022/07/23 13:23:56;;;;;;;316.27;298.95;;;;;;;;;;5038429;28;20033;-67
2022/07/23 13:26:22;;;;;;;439.35;414.02;;;;;;;;;;5042268;28;20374;-67
2022/07/23 13:28:47;;;;;;;450.98;425.15;;;;;;;;;;5035853;28;20037;-66
2022/07/23 13:31:13;;;;;;;222.55;210.93;;;;;;;;;;5039672;28;20039;-66
2022/07/23 13:33:39;;;;;;;153.13;145.40;;;;;;;;;;5038027;28;20523;-66
2022/07/23 13:36:05;;;;;;;375.48;354.67;;;;;;;;;;5039803;28;20127;-68
2022/07/23 13:38:30;;;;;;;586.00;549.70;;;;;;;;;;5037109;28;20090;-67
2022/07/23 13:40:56;;;;;;;573.28;538.33;;;;;;;;;;5040448;28;20363;-66
2022/07/23 13:43:23;;;;;;;498.95;469.85;;;;;;;;;;5040134;28;20636;-67
2022/07/23 13:45:49;;;;;;;619.35;580.47;;;;;;;;;;5053398;28;20465;-67
2022/07/23 13:48:15;;;;;;;568.22;533.83;;;;;;;;;;5045437;28;20466;-67
2022/07/23 13:50:42;;;;;;;617.88;579.35;;;;;;;;;;5056730;28;20114;-67
2022/07/23 13:53:10;;;;;;;531.08;500.15;;;;;;;;;;5036750;28;20025;-67
2022/07/23 13:55:37;;;;;;;619.65;582.03;;;;;;;;;;5036276;28;20029;-68
2022/07/23 13:58:03;;;;;;;522.85;492.23;;;;;;;;;;5039931;28;20024;-67
2022/07/23 14:00:30;;;;;;;366.40;346.10;;;;;;;;;;5042291;28;20036;-67
2022/07/23 14:02:56;;;;;;;612.63;575.38;;;;;;;;;;5025712;28;20708;-66
2022/07/23 14:05:22;;;;;;;341.98;323.45;;;;;;;;;;5039175;28;20328;-66
2022/07/23 14:07:49;;;;;;;549.10;515.80;;;;;;;;;;5041023;28;20029;-66
2022/07/23 14:10:16;;;;;;;639.80;600.30;;;;;;;;;;5038963;28;20028;-66